Tropical Cyclones
[Index]
Main Index Home Page Stock Weather Photos Extreme Storms Discussion Storm News and Storm Chasing Reports Tropical Cyclones / Hurricanes / Typhoons Weather Data and Links Wild Fires / Bushfires Weather Observation Techniques Weather Picture Catalogue Tornado Pictures and Reports Stock Video Footage and DVDs for sale
Season 1958-1959 Tropical Cyclone 195929 Track Map
Season 1958-1959 Summaries: [BoM-AU] [JTWC-AU] [JTWC-SIO] [JTWC-SPAC] [JTWC-SH]
<<- Previous TC | JTWC 1958-1959 Season | Next TC ->>

click for intensity scale information  Lat/long Grid: Show Hide

 Date Labels: Show Hide

Joint Typhoon Warning Centre Cyclone Data

Name: 195929
Number: 369 / 5929

03 Apr 1959 00:00 UTC to 11 Apr 1959 18:00 UTC

    date/time    lat    long     hPa   cat  kts
1959-04-03 00   10.1   134.8                              
1959-04-03 06    9.9   134.0                              
1959-04-03 12    9.8   133.2                              
1959-04-03 18    9.9   132.5                              
1959-04-04 00   10.0   131.9                              
1959-04-04 06   10.2   131.3                              
1959-04-04 12   10.3   130.8                              
1959-04-04 18   10.5   130.3                              
1959-04-05 00   11.0   130.0                              
1959-04-05 06   11.7   129.9                              
1959-04-05 12   12.5   129.8                              
1959-04-05 18   13.3   129.8                              
1959-04-06 00   14.1   129.7                              
1959-04-06 06   14.7   129.1                              
1959-04-06 12   15.1   128.5                              
1959-04-06 18   14.4   128.2                              
1959-04-07 00   14.1   128.0                              
1959-04-07 06   15.2   128.1                              
1959-04-07 12   16.0   127.9                              
1959-04-07 18   16.2   126.7                              
1959-04-08 00   16.2   125.6                              
1959-04-08 06   15.8   124.9                              
1959-04-08 12   15.6   124.2                              
1959-04-08 18   15.3   123.5                              
1959-04-09 00   15.1   122.8                              
1959-04-09 06   14.8   122.0                              
1959-04-09 12   14.7   121.3                              
1959-04-09 18   14.8   120.4                              
1959-04-10 00   15.2   119.6                              
1959-04-10 06   15.6   118.8                              
1959-04-10 12   16.2   118.3                              
1959-04-10 18   17.2   118.2                              
1959-04-11 00   18.0   118.0                              
1959-04-11 06   18.7   117.7                              
1959-04-11 12   19.3   117.3                              
1959-04-11 18   19.7   116.7                              
Winds are 1-min average.

Tropical cyclone tracks developed by Michael Bath using data from the Joint Typhoon Warning Centre Best Tracks and Google Maps.


[Australian Severe Weather index] [Copyright Notice] [Email Contacts] [Search This Site] [Privacy Policy]
Document: tropical_cyclone_195929.htm Updated: 18 September 2016